sensor_id;sensor_type;location;lat;lon;timestamp;pressure;altitude;pressure_sealevel;temperature;humidity
51526;BME280;37611;51.794;21.590;2022-11-13T00:02:42;101599.91;;;7.21;100.00
51526;BME280;37611;51.794;21.590;2022-11-13T00:06:44;101603.76;;;7.21;100.00
51526;BME280;37611;51.794;21.590;2022-11-13T00:10:46;101599.02;;;7.22;100.00
51526;BME280;37611;51.794;21.590;2022-11-13T00:14:48;101599.80;;;7.26;100.00
51526;BME280;37611;51.794;21.590;2022-11-13T00:18:49;101603.58;;;7.30;100.00
51526;BME280;37611;51.794;21.590;2022-11-13T00:22:51;101599.98;;;7.29;100.00
51526;BME280;37611;51.794;21.590;2022-11-13T00:26:53;101589.99;;;7.30;100.00
51526;BME280;37611;51.794;21.590;2022-11-13T00:30:59;101586.30;;;7.33;100.00
51526;BME280;37611;51.794;21.590;2022-11-13T00:35:01;101578.34;;;7.32;100.00
51526;BME280;37611;51.794;21.590;2022-11-13T00:39:03;101578.78;;;7.34;100.00
51526;BME280;37611;51.794;21.590;2022-11-13T00:43:05;101578.91;;;7.38;100.00
51526;BME280;37611;51.794;21.590;2022-11-13T00:47:06;101576.89;;;7.36;100.00
51526;BME280;37611;51.794;21.590;2022-11-13T00:51:08;101580.21;;;7.36;100.00
51526;BME280;37611;51.794;21.590;2022-11-13T00:55:10;101577.47;;;7.35;100.00
51526;BME280;37611;51.794;21.590;2022-11-13T00:59:11;101577.86;;;7.34;100.00
51526;BME280;37611;51.794;21.590;2022-11-13T01:03:14;101572.34;;;7.34;100.00
51526;BME280;37611;51.794;21.590;2022-11-13T01:07:17;101565.88;;;7.34;100.00
51526;BME280;37611;51.794;21.590;2022-11-13T01:11:21;101558.00;;;7.35;100.00
51526;BME280;37611;51.794;21.590;2022-11-13T01:15:24;101558.94;;;7.36;100.00
51526;BME280;37611;51.794;21.590;2022-11-13T01:19:25;101560.46;;;7.37;100.00
51526;BME280;37611;51.794;21.590;2022-11-13T01:23:27;101559.21;;;7.38;100.00
51526;BME280;37611;51.794;21.590;2022-11-13T01:27:29;101555.38;;;7.38;100.00
51526;BME280;37611;51.794;21.590;2022-11-13T01:31:31;101556.48;;;7.34;100.00
51526;BME280;37611;51.794;21.590;2022-11-13T01:35:33;101561.73;;;7.36;100.00
51526;BME280;37611;51.794;21.590;2022-11-13T01:39:34;101558.39;;;7.37;100.00
51526;BME280;37611;51.794;21.590;2022-11-13T01:43:37;101560.90;;;7.39;100.00
51526;BME280;37611;51.794;21.590;2022-11-13T01:47:38;101564.70;;;7.42;100.00
51526;BME280;37611;51.794;21.590;2022-11-13T01:51:49;101566.66;;;7.44;100.00
51526;BME280;37611;51.794;21.590;2022-11-13T01:55:54;101567.41;;;7.43;100.00
51526;BME280;37611;51.794;21.590;2022-11-13T01:59:59;101565.91;;;7.42;100.00
51526;BME280;37611;51.794;21.590;2022-11-13T02:04:03;101562.27;;;7.45;100.00
51526;BME280;37611;51.794;21.590;2022-11-13T02:08:05;101556.50;;;7.45;100.00
51526;BME280;37611;51.794;21.590;2022-11-13T02:12:10;101552.41;;;7.43;100.00
51526;BME280;37611;51.794;21.590;2022-11-13T02:16:12;101550.46;;;7.47;100.00
51526;BME280;37611;51.794;21.590;2022-11-13T02:20:20;101546.89;;;7.48;100.00
51526;BME280;37611;51.794;21.590;2022-11-13T02:24:41;101544.39;;;7.49;100.00
51526;BME280;37611;51.794;21.590;2022-11-13T02:28:44;101536.95;;;7.48;100.00
51526;BME280;37611;51.794;21.590;2022-11-13T02:32:49;101541.56;;;7.50;100.00
51526;BME280;37611;51.794;21.590;2022-11-13T02:36:51;101541.46;;;7.54;100.00
51526;BME280;37611;51.794;21.590;2022-11-13T02:40:53;101542.64;;;7.52;100.00
51526;BME280;37611;51.794;21.590;2022-11-13T02:44:55;101538.88;;;7.51;100.00
51526;BME280;37611;51.794;21.590;2022-11-13T02:48:57;101539.92;;;7.51;100.00
51526;BME280;37611;51.794;21.590;2022-11-13T02:52:59;101539.13;;;7.55;100.00
51526;BME280;37611;51.794;21.590;2022-11-13T02:57:01;101538.08;;;7.55;100.00
51526;BME280;37611;51.794;21.590;2022-11-13T03:01:03;101533.36;;;7.53;100.00
51526;BME280;37611;51.794;21.590;2022-11-13T03:05:05;101535.00;;;7.51;100.00
51526;BME280;37611;51.794;21.590;2022-11-13T03:09:07;101537.45;;;7.51;100.00
51526;BME280;37611;51.794;21.590;2022-11-13T03:13:09;101538.48;;;7.52;100.00
51526;BME280;37611;51.794;21.590;2022-11-13T03:17:10;101536.60;;;7.54;100.00
51526;BME280;37611;51.794;21.590;2022-11-13T03:21:13;101537.69;;;7.50;100.00
51526;BME280;37611;51.794;21.590;2022-11-13T03:25:15;101535.25;;;7.48;100.00
51526;BME280;37611;51.794;21.590;2022-11-13T03:29:17;101535.60;;;7.47;100.00
51526;BME280;37611;51.794;21.590;2022-11-13T03:33:19;101539.14;;;7.47;100.00
51526;BME280;37611;51.794;21.590;2022-11-13T03:37:20;101537.85;;;7.45;100.00
51526;BME280;37611;51.794;21.590;2022-11-13T03:41:22;101538.29;;;7.43;100.00
51526;BME280;37611;51.794;21.590;2022-11-13T03:45:24;101542.17;;;7.46;100.00
51526;BME280;37611;51.794;21.590;2022-11-13T03:49:26;101545.19;;;7.45;100.00
51526;BME280;37611;51.794;21.590;2022-11-13T03:53:27;101547.83;;;7.44;100.00
51526;BME280;37611;51.794;21.590;2022-11-13T03:57:29;101545.44;;;7.44;100.00
51526;BME280;37611;51.794;21.590;2022-11-13T04:01:32;101547.02;;;7.43;100.00
51526;BME280;37611;51.794;21.590;2022-11-13T04:05:34;101539.66;;;7.44;100.00
51526;BME280;37611;51.794;21.590;2022-11-13T04:09:35;101540.77;;;7.46;100.00
51526;BME280;37611;51.794;21.590;2022-11-13T04:13:37;101543.20;;;7.46;100.00
51526;BME280;37611;51.794;21.590;2022-11-13T04:17:39;101540.27;;;7.45;100.00
51526;BME280;37611;51.794;21.590;2022-11-13T04:21:41;101541.90;;;7.42;100.00
51526;BME280;37611;51.794;21.590;2022-11-13T04:25:43;101542.63;;;7.39;100.00
51526;BME280;37611;51.794;21.590;2022-11-13T04:29:45;101545.12;;;7.37;100.00
51526;BME280;37611;51.794;21.590;2022-11-13T04:33:47;101545.15;;;7.37;100.00
51526;BME280;37611;51.794;21.590;2022-11-13T04:37:49;101542.35;;;7.34;100.00
51526;BME280;37611;51.794;21.590;2022-11-13T04:41:50;101543.29;;;7.36;100.00
51526;BME280;37611;51.794;21.590;2022-11-13T04:46:11;101538.08;;;7.39;100.00
51526;BME280;37611;51.794;21.590;2022-11-13T04:50:14;101537.55;;;7.35;100.00
51526;BME280;37611;51.794;21.590;2022-11-13T04:54:17;101536.35;;;7.35;100.00
51526;BME280;37611;51.794;21.590;2022-11-13T04:58:18;101539.30;;;7.39;100.00
51526;BME280;37611;51.794;21.590;2022-11-13T05:02:21;101537.95;;;7.43;100.00
51526;BME280;37611;51.794;21.590;2022-11-13T05:06:23;101534.69;;;7.43;100.00
51526;BME280;37611;51.794;21.590;2022-11-13T05:10:25;101540.33;;;7.42;100.00
51526;BME280;37611;51.794;21.590;2022-11-13T05:14:27;101545.65;;;7.49;100.00
51526;BME280;37611;51.794;21.590;2022-11-13T05:18:29;101556.38;;;7.53;100.00
51526;BME280;37611;51.794;21.590;2022-11-13T05:22:31;101551.39;;;7.49;100.00
51526;BME280;37611;51.794;21.590;2022-11-13T05:26:32;101555.89;;;7.46;100.00
51526;BME280;37611;51.794;21.590;2022-11-13T05:30:34;101558.07;;;7.50;100.00
51526;BME280;37611;51.794;21.590;2022-11-13T05:34:36;101560.54;;;7.53;100.00
51526;BME280;37611;51.794;21.590;2022-11-13T05:38:39;101567.79;;;7.54;100.00
51526;BME280;37611;51.794;21.590;2022-11-13T05:42:41;101570.70;;;7.52;100.00
51526;BME280;37611;51.794;21.590;2022-11-13T05:46:43;101575.10;;;7.51;100.00
51526;BME280;37611;51.794;21.590;2022-11-13T05:50:45;101577.34;;;7.52;100.00
51526;BME280;37611;51.794;21.590;2022-11-13T05:54:47;101577.88;;;7.52;100.00
51526;BME280;37611;51.794;21.590;2022-11-13T05:58:50;101578.05;;;7.49;100.00
51526;BME280;37611;51.794;21.590;2022-11-13T06:02:52;101579.66;;;7.48;100.00
51526;BME280;37611;51.794;21.590;2022-11-13T06:06:54;101585.65;;;7.47;100.00
51526;BME280;37611;51.794;21.590;2022-11-13T06:11:00;101589.08;;;7.48;100.00
51526;BME280;37611;51.794;21.590;2022-11-13T06:15:03;101580.34;;;7.48;100.00
51526;BME280;37611;51.794;21.590;2022-11-13T06:19:07;101587.08;;;7.47;100.00
51526;BME280;37611;51.794;21.590;2022-11-13T06:23:09;101583.38;;;7.47;100.00
51526;BME280;37611;51.794;21.590;2022-11-13T06:27:11;101579.97;;;7.49;100.00
51526;BME280;37611;51.794;21.590;2022-11-13T06:31:16;101579.55;;;7.47;100.00
51526;BME280;37611;51.794;21.590;2022-11-13T06:35:18;101584.45;;;7.47;100.00
51526;BME280;37611;51.794;21.590;2022-11-13T06:39:20;101587.63;;;7.49;100.00
51526;BME280;37611;51.794;21.590;2022-11-13T06:43:22;101588.17;;;7.54;100.00
51526;BME280;37611;51.794;21.590;2022-11-13T06:47:24;101589.75;;;7.57;100.00
51526;BME280;37611;51.794;21.590;2022-11-13T06:51:28;101593.64;;;7.53;100.00
51526;BME280;37611;51.794;21.590;2022-11-13T06:55:30;101594.13;;;7.59;100.00
51526;BME280;37611;51.794;21.590;2022-11-13T06:59:32;101597.10;;;7.65;100.00
51526;BME280;37611;51.794;21.590;2022-11-13T07:03:34;101593.74;;;7.66;100.00
51526;BME280;37611;51.794;21.590;2022-11-13T07:07:36;101589.80;;;7.65;100.00
51526;BME280;37611;51.794;21.590;2022-11-13T07:11:37;101594.07;;;7.63;100.00
51526;BME280;37611;51.794;21.590;2022-11-13T07:15:39;101595.34;;;7.62;100.00
51526;BME280;37611;51.794;21.590;2022-11-13T07:19:41;101587.29;;;7.60;100.00
51526;BME280;37611;51.794;21.590;2022-11-13T07:23:46;101591.75;;;7.55;100.00
51526;BME280;37611;51.794;21.590;2022-11-13T07:27:48;101587.65;;;7.54;100.00
51526;BME280;37611;51.794;21.590;2022-11-13T07:31:50;101583.44;;;7.58;100.00
51526;BME280;37611;51.794;21.590;2022-11-13T07:35:56;101581.16;;;7.60;100.00
51526;BME280;37611;51.794;21.590;2022-11-13T07:39:57;101580.17;;;7.68;100.00
51526;BME280;37611;51.794;21.590;2022-11-13T07:43:59;101581.08;;;7.71;100.00
51526;BME280;37611;51.794;21.590;2022-11-13T07:48:02;101576.95;;;7.75;100.00
51526;BME280;37611;51.794;21.590;2022-11-13T07:52:04;101576.11;;;7.86;100.00
51526;BME280;37611;51.794;21.590;2022-11-13T07:56:06;101571.47;;;7.99;100.00
51526;BME280;37611;51.794;21.590;2022-11-13T08:00:08;101569.70;;;8.15;100.00
51526;BME280;37611;51.794;21.590;2022-11-13T08:04:10;101581.70;;;8.27;100.00
51526;BME280;37611;51.794;21.590;2022-11-13T08:08:13;101584.86;;;8.35;100.00
51526;BME280;37611;51.794;21.590;2022-11-13T08:12:15;101587.09;;;8.39;100.00
51526;BME280;37611;51.794;21.590;2022-11-13T08:16:17;101589.71;;;8.39;100.00
51526;BME280;37611;51.794;21.590;2022-11-13T08:20:19;101589.19;;;8.36;100.00
51526;BME280;37611;51.794;21.590;2022-11-13T08:24:21;101590.27;;;8.32;100.00
51526;BME280;37611;51.794;21.590;2022-11-13T08:28:23;101586.98;;;8.34;100.00
51526;BME280;37611;51.794;21.590;2022-11-13T08:32:25;101586.48;;;8.37;100.00
51526;BME280;37611;51.794;21.590;2022-11-13T08:36:27;101580.45;;;8.33;100.00
51526;BME280;37611;51.794;21.590;2022-11-13T08:40:29;101578.82;;;8.31;100.00
51526;BME280;37611;51.794;21.590;2022-11-13T08:44:30;101578.31;;;8.25;100.00
51526;BME280;37611;51.794;21.590;2022-11-13T08:48:32;101571.66;;;8.23;100.00
51526;BME280;37611;51.794;21.590;2022-11-13T08:52:34;101571.79;;;8.19;100.00
51526;BME280;37611;51.794;21.590;2022-11-13T08:56:36;101571.89;;;8.17;100.00
51526;BME280;37611;51.794;21.590;2022-11-13T09:00:38;101577.77;;;8.15;100.00
51526;BME280;37611;51.794;21.590;2022-11-13T09:04:40;101583.44;;;8.14;100.00
51526;BME280;37611;51.794;21.590;2022-11-13T09:08:42;101581.65;;;8.14;100.00
51526;BME280;37611;51.794;21.590;2022-11-13T09:12:44;101575.64;;;8.15;100.00
51526;BME280;37611;51.794;21.590;2022-11-13T09:16:46;101578.31;;;8.17;100.00
51526;BME280;37611;51.794;21.590;2022-11-13T09:20:47;101581.89;;;8.19;100.00
51526;BME280;37611;51.794;21.590;2022-11-13T09:24:49;101576.02;;;8.20;100.00
51526;BME280;37611;51.794;21.590;2022-11-13T09:28:51;101570.23;;;8.18;100.00
51526;BME280;37611;51.794;21.590;2022-11-13T09:32:55;101570.75;;;8.21;100.00
51526;BME280;37611;51.794;21.590;2022-11-13T09:36:58;101563.92;;;8.24;100.00
51526;BME280;37611;51.794;21.590;2022-11-13T09:41:24;101566.77;;;8.31;100.00
51526;BME280;37611;51.794;21.590;2022-11-13T09:45:27;101569.83;;;8.38;100.00
51526;BME280;37611;51.794;21.590;2022-11-13T09:49:37;101569.34;;;8.38;100.00
51526;BME280;37611;51.794;21.590;2022-11-13T09:53:41;101572.10;;;8.35;100.00
51526;BME280;37611;51.794;21.590;2022-11-13T09:58:11;101570.23;;;8.38;100.00
51526;BME280;37611;51.794;21.590;2022-11-13T10:11:14;101551.31;;;8.41;100.00
51526;BME280;37611;51.794;21.590;2022-11-13T10:15:16;101541.67;;;8.50;100.00
51526;BME280;37611;51.794;21.590;2022-11-13T10:23:34;101536.74;;;8.64;100.00
51526;BME280;37611;51.794;21.590;2022-11-13T10:27:38;101528.63;;;8.70;100.00
51526;BME280;37611;51.794;21.590;2022-11-13T10:31:43;101532.92;;;8.76;100.00
51526;BME280;37611;51.794;21.590;2022-11-13T10:36:12;101530.65;;;8.82;100.00
51526;BME280;37611;51.794;21.590;2022-11-13T10:40:28;101527.61;;;8.88;100.00
51526;BME280;37611;51.794;21.590;2022-11-13T10:44:32;101528.45;;;8.88;100.00
51526;BME280;37611;51.794;21.590;2022-11-13T10:48:35;101524.41;;;8.83;100.00
51526;BME280;37611;51.794;21.590;2022-11-13T10:52:44;101526.16;;;8.80;100.00
51526;BME280;37611;51.794;21.590;2022-11-13T10:57:00;101525.71;;;8.82;100.00
51526;BME280;37611;51.794;21.590;2022-11-13T11:01:14;101522.34;;;8.83;100.00
51526;BME280;37611;51.794;21.590;2022-11-13T11:05:17;101521.60;;;8.81;100.00
51526;BME280;37611;51.794;21.590;2022-11-13T11:09:23;101519.84;;;8.79;100.00
51526;BME280;37611;51.794;21.590;2022-11-13T11:13:26;101522.79;;;8.79;100.00
51526;BME280;37611;51.794;21.590;2022-11-13T11:21:33;101514.86;;;8.80;100.00
51526;BME280;37611;51.794;21.590;2022-11-13T11:25:40;101508.61;;;8.77;100.00
51526;BME280;37611;51.794;21.590;2022-11-13T11:30:01;101503.17;;;8.77;100.00
51526;BME280;37611;51.794;21.590;2022-11-13T11:38:32;101500.54;;;8.85;100.00
51526;BME280;37611;51.794;21.590;2022-11-13T11:47:19;101496.87;;;8.90;100.00
51526;BME280;37611;51.794;21.590;2022-11-13T11:51:28;101495.45;;;8.98;100.00
51526;BME280;37611;51.794;21.590;2022-11-13T12:04:16;101492.56;;;8.92;100.00
51526;BME280;37611;51.794;21.590;2022-11-13T12:17:11;101488.39;;;8.87;100.00
51526;BME280;37611;51.794;21.590;2022-11-13T12:21:23;101488.74;;;8.89;100.00
51526;BME280;37611;51.794;21.590;2022-11-13T12:33:59;101485.06;;;8.89;100.00
51526;BME280;37611;51.794;21.590;2022-11-13T12:46:39;101472.80;;;9.00;100.00
51526;BME280;37611;51.794;21.590;2022-11-13T12:50:41;101468.84;;;9.07;100.00
51526;BME280;37611;51.794;21.590;2022-11-13T12:54:44;101467.04;;;9.10;100.00
51526;BME280;37611;51.794;21.590;2022-11-13T13:12:01;101461.29;;;9.07;100.00
51526;BME280;37611;51.794;21.590;2022-11-13T13:16:08;101460.08;;;9.12;100.00
51526;BME280;37611;51.794;21.590;2022-11-13T13:24:41;101457.16;;;9.09;100.00
51526;BME280;37611;51.794;21.590;2022-11-13T13:28:49;101453.52;;;9.06;100.00
51526;BME280;37611;51.794;21.590;2022-11-13T13:38:10;101453.95;;;9.10;100.00
51526;BME280;37611;51.794;21.590;2022-11-13T13:42:41;101447.38;;;9.06;100.00
51526;BME280;37611;51.794;21.590;2022-11-13T13:46:48;101439.51;;;8.97;100.00
51526;BME280;37611;51.794;21.590;2022-11-13T13:50:50;101447.50;;;8.92;100.00
51526;BME280;37611;51.794;21.590;2022-11-13T13:54:53;101447.38;;;8.89;100.00
51526;BME280;37611;51.794;21.590;2022-11-13T13:58:55;101445.35;;;8.88;100.00
51526;BME280;37611;51.794;21.590;2022-11-13T14:03:00;101441.97;;;8.89;100.00
51526;BME280;37611;51.794;21.590;2022-11-13T14:07:18;101444.05;;;8.91;100.00
51526;BME280;37611;51.794;21.590;2022-11-13T14:11:24;101432.05;;;8.93;100.00
51526;BME280;37611;51.794;21.590;2022-11-13T14:15:34;101432.52;;;8.94;100.00
51526;BME280;37611;51.794;21.590;2022-11-13T14:19:36;101432.44;;;8.98;100.00
51526;BME280;37611;51.794;21.590;2022-11-13T14:23:48;101430.77;;;8.99;100.00
51526;BME280;37611;51.794;21.590;2022-11-13T14:27:51;101431.74;;;9.00;100.00
51526;BME280;37611;51.794;21.590;2022-11-13T14:31:53;101433.88;;;8.97;100.00
51526;BME280;37611;51.794;21.590;2022-11-13T14:35:56;101433.23;;;8.94;100.00
51526;BME280;37611;51.794;21.590;2022-11-13T14:40:02;101431.16;;;8.95;100.00
51526;BME280;37611;51.794;21.590;2022-11-13T14:44:05;101431.57;;;8.97;100.00
51526;BME280;37611;51.794;21.590;2022-11-13T14:48:28;101428.95;;;8.98;100.00
51526;BME280;37611;51.794;21.590;2022-11-13T14:52:30;101421.41;;;8.93;100.00
51526;BME280;37611;51.794;21.590;2022-11-13T14:56:38;101421.65;;;8.92;100.00
51526;BME280;37611;51.794;21.590;2022-11-13T15:00:41;101420.79;;;8.87;100.00
51526;BME280;37611;51.794;21.590;2022-11-13T15:04:43;101420.55;;;8.82;100.00
51526;BME280;37611;51.794;21.590;2022-11-13T15:08:46;101416.34;;;8.85;100.00
51526;BME280;37611;51.794;21.590;2022-11-13T15:12:49;101414.94;;;8.83;100.00
51526;BME280;37611;51.794;21.590;2022-11-13T15:16:51;101412.08;;;8.86;100.00
51526;BME280;37611;51.794;21.590;2022-11-13T15:20:53;101414.59;;;8.91;100.00
51526;BME280;37611;51.794;21.590;2022-11-13T15:24:55;101413.75;;;8.92;100.00
51526;BME280;37611;51.794;21.590;2022-11-13T15:28:57;101411.43;;;8.91;100.00
51526;BME280;37611;51.794;21.590;2022-11-13T15:33:00;101414.98;;;8.87;100.00
51526;BME280;37611;51.794;21.590;2022-11-13T15:37:14;101410.89;;;8.83;100.00
51526;BME280;37611;51.794;21.590;2022-11-13T15:41:19;101406.86;;;8.83;100.00
51526;BME280;37611;51.794;21.590;2022-11-13T15:45:21;101410.86;;;8.81;100.00
51526;BME280;37611;51.794;21.590;2022-11-13T15:49:23;101401.73;;;8.74;100.00
51526;BME280;37611;51.794;21.590;2022-11-13T15:53:25;101404.98;;;8.68;100.00
51526;BME280;37611;51.794;21.590;2022-11-13T15:57:28;101405.77;;;8.59;100.00
51526;BME280;37611;51.794;21.590;2022-11-13T16:01:30;101403.84;;;8.33;100.00
51526;BME280;37611;51.794;21.590;2022-11-13T16:05:32;101402.09;;;8.15;100.00
51526;BME280;37611;51.794;21.590;2022-11-13T16:09:33;101404.10;;;8.05;100.00
51526;BME280;37611;51.794;21.590;2022-11-13T16:13:36;101401.58;;;8.01;100.00
51526;BME280;37611;51.794;21.590;2022-11-13T16:17:40;101402.41;;;8.02;100.00
51526;BME280;37611;51.794;21.590;2022-11-13T16:21:42;101411.58;;;7.98;100.00
51526;BME280;37611;51.794;21.590;2022-11-13T16:25:45;101409.79;;;7.96;100.00
51526;BME280;37611;51.794;21.590;2022-11-13T16:29:48;101408.62;;;7.89;100.00
51526;BME280;37611;51.794;21.590;2022-11-13T16:33:50;101413.35;;;7.78;100.00
51526;BME280;37611;51.794;21.590;2022-11-13T16:37:52;101415.20;;;7.74;100.00
51526;BME280;37611;51.794;21.590;2022-11-13T16:41:53;101408.84;;;7.75;100.00
51526;BME280;37611;51.794;21.590;2022-11-13T16:45:58;101412.77;;;7.74;100.00
51526;BME280;37611;51.794;21.590;2022-11-13T16:50:01;101411.30;;;7.72;100.00
51526;BME280;37611;51.794;21.590;2022-11-13T16:54:02;101413.20;;;7.76;100.00
51526;BME280;37611;51.794;21.590;2022-11-13T16:58:04;101420.35;;;7.75;100.00
51526;BME280;37611;51.794;21.590;2022-11-13T17:02:15;101422.52;;;7.74;100.00
51526;BME280;37611;51.794;21.590;2022-11-13T17:10:27;101425.68;;;7.76;100.00
51526;BME280;37611;51.794;21.590;2022-11-13T17:14:28;101417.98;;;7.79;100.00
51526;BME280;37611;51.794;21.590;2022-11-13T17:18:30;101415.66;;;7.73;100.00
51526;BME280;37611;51.794;21.590;2022-11-13T17:22:32;101411.95;;;7.65;100.00
51526;BME280;37611;51.794;21.590;2022-11-13T17:26:34;101404.27;;;7.60;100.00
51526;BME280;37611;51.794;21.590;2022-11-13T17:30:35;101405.41;;;7.58;100.00
51526;BME280;37611;51.794;21.590;2022-11-13T17:34:37;101409.55;;;7.56;100.00
51526;BME280;37611;51.794;21.590;2022-11-13T17:38:39;101407.71;;;7.52;100.00
51526;BME280;37611;51.794;21.590;2022-11-13T17:42:41;101403.52;;;7.52;100.00
51526;BME280;37611;51.794;21.590;2022-11-13T17:46:42;101406.95;;;7.53;100.00
51526;BME280;37611;51.794;21.590;2022-11-13T17:50:54;101402.52;;;7.54;100.00
51526;BME280;37611;51.794;21.590;2022-11-13T17:54:57;101405.31;;;7.57;100.00
51526;BME280;37611;51.794;21.590;2022-11-13T17:58:58;101402.69;;;7.57;100.00
51526;BME280;37611;51.794;21.590;2022-11-13T18:03:00;101397.05;;;7.55;100.00
51526;BME280;37611;51.794;21.590;2022-11-13T18:07:02;101401.69;;;7.56;100.00
51526;BME280;37611;51.794;21.590;2022-11-13T18:15:18;101386.75;;;7.61;100.00
51526;BME280;37611;51.794;21.590;2022-11-13T18:19:20;101384.37;;;7.57;100.00
51526;BME280;37611;51.794;21.590;2022-11-13T18:23:22;101378.55;;;7.50;100.00
51526;BME280;37611;51.794;21.590;2022-11-13T18:27:24;101375.47;;;7.50;100.00
51526;BME280;37611;51.794;21.590;2022-11-13T18:31:26;101374.39;;;7.47;100.00
51526;BME280;37611;51.794;21.590;2022-11-13T18:35:28;101371.35;;;7.46;100.00
51526;BME280;37611;51.794;21.590;2022-11-13T18:39:30;101370.53;;;7.40;100.00
51526;BME280;37611;51.794;21.590;2022-11-13T18:43:32;101375.73;;;7.40;100.00
51526;BME280;37611;51.794;21.590;2022-11-13T18:47:34;101370.38;;;7.39;100.00
51526;BME280;37611;51.794;21.590;2022-11-13T18:51:35;101368.69;;;7.39;100.00
51526;BME280;37611;51.794;21.590;2022-11-13T18:55:38;101371.44;;;7.42;100.00
51526;BME280;37611;51.794;21.590;2022-11-13T18:59:40;101364.66;;;7.42;100.00
51526;BME280;37611;51.794;21.590;2022-11-13T19:03:42;101357.00;;;7.41;100.00
51526;BME280;37611;51.794;21.590;2022-11-13T19:07:44;101361.02;;;7.41;100.00
51526;BME280;37611;51.794;21.590;2022-11-13T19:11:46;101361.84;;;7.45;100.00
51526;BME280;37611;51.794;21.590;2022-11-13T19:15:49;101364.77;;;7.48;100.00
51526;BME280;37611;51.794;21.590;2022-11-13T19:19:51;101364.71;;;7.51;100.00
51526;BME280;37611;51.794;21.590;2022-11-13T19:23:53;101367.04;;;7.51;100.00
51526;BME280;37611;51.794;21.590;2022-11-13T19:27:55;101374.34;;;7.48;100.00
51526;BME280;37611;51.794;21.590;2022-11-13T19:31:57;101377.36;;;7.50;100.00
51526;BME280;37611;51.794;21.590;2022-11-13T19:36:14;101378.20;;;7.50;100.00
51526;BME280;37611;51.794;21.590;2022-11-13T19:40:16;101384.23;;;7.49;100.00
51526;BME280;37611;51.794;21.590;2022-11-13T19:44:18;101382.34;;;7.51;100.00
51526;BME280;37611;51.794;21.590;2022-11-13T19:48:20;101379.61;;;7.50;100.00
51526;BME280;37611;51.794;21.590;2022-11-13T19:52:22;101378.35;;;7.51;100.00
51526;BME280;37611;51.794;21.590;2022-11-13T19:56:25;101378.73;;;7.53;100.00
51526;BME280;37611;51.794;21.590;2022-11-13T20:00:28;101377.38;;;7.55;100.00
51526;BME280;37611;51.794;21.590;2022-11-13T20:04:30;101376.73;;;7.57;100.00
51526;BME280;37611;51.794;21.590;2022-11-13T20:08:33;101380.63;;;7.58;100.00
51526;BME280;37611;51.794;21.590;2022-11-13T20:12:35;101378.41;;;7.58;100.00
51526;BME280;37611;51.794;21.590;2022-11-13T20:16:37;101380.11;;;7.61;100.00
51526;BME280;37611;51.794;21.590;2022-11-13T20:20:42;101387.25;;;7.61;100.00
51526;BME280;37611;51.794;21.590;2022-11-13T20:24:44;101388.42;;;7.67;100.00
51526;BME280;37611;51.794;21.590;2022-11-13T20:28:46;101382.59;;;7.69;100.00
51526;BME280;37611;51.794;21.590;2022-11-13T20:32:48;101380.20;;;7.73;100.00
51526;BME280;37611;51.794;21.590;2022-11-13T20:36:50;101379.68;;;7.76;100.00
51526;BME280;37611;51.794;21.590;2022-11-13T20:40:52;101381.11;;;7.75;100.00
51526;BME280;37611;51.794;21.590;2022-11-13T20:44:54;101379.42;;;7.74;100.00
51526;BME280;37611;51.794;21.590;2022-11-13T20:48:56;101379.21;;;7.75;100.00
51526;BME280;37611;51.794;21.590;2022-11-13T20:52:57;101379.09;;;7.74;100.00
51526;BME280;37611;51.794;21.590;2022-11-13T20:57:00;101383.39;;;7.70;100.00
51526;BME280;37611;51.794;21.590;2022-11-13T21:05:07;101379.95;;;7.66;100.00
51526;BME280;37611;51.794;21.590;2022-11-13T21:09:09;101385.01;;;7.67;100.00
51526;BME280;37611;51.794;21.590;2022-11-13T21:13:11;101380.19;;;7.65;100.00
51526;BME280;37611;51.794;21.590;2022-11-13T21:17:13;101377.91;;;7.68;100.00
51526;BME280;37611;51.794;21.590;2022-11-13T21:21:18;101378.52;;;7.70;100.00
51526;BME280;37611;51.794;21.590;2022-11-13T21:25:20;101374.90;;;7.69;100.00
51526;BME280;37611;51.794;21.590;2022-11-13T21:29:23;101377.79;;;7.62;100.00
51526;BME280;37611;51.794;21.590;2022-11-13T21:33:36;101377.60;;;7.57;100.00
51526;BME280;37611;51.794;21.590;2022-11-13T21:37:38;101377.59;;;7.55;100.00
51526;BME280;37611;51.794;21.590;2022-11-13T21:41:40;101379.04;;;7.54;100.00
51526;BME280;37611;51.794;21.590;2022-11-13T21:45:42;101377.50;;;7.56;100.00
51526;BME280;37611;51.794;21.590;2022-11-13T21:49:44;101376.34;;;7.55;100.00
51526;BME280;37611;51.794;21.590;2022-11-13T21:53:45;101379.52;;;7.57;100.00
51526;BME280;37611;51.794;21.590;2022-11-13T21:57:47;101377.08;;;7.57;100.00
51526;BME280;37611;51.794;21.590;2022-11-13T22:01:49;101376.00;;;7.55;100.00
51526;BME280;37611;51.794;21.590;2022-11-13T22:10:19;101370.79;;;7.54;100.00
51526;BME280;37611;51.794;21.590;2022-11-13T22:14:21;101369.63;;;7.53;100.00
51526;BME280;37611;51.794;21.590;2022-11-13T22:18:23;101367.59;;;7.53;100.00
51526;BME280;37611;51.794;21.590;2022-11-13T22:22:25;101367.02;;;7.54;100.00
51526;BME280;37611;51.794;21.590;2022-11-13T22:26:27;101365.13;;;7.56;100.00
51526;BME280;37611;51.794;21.590;2022-11-13T22:30:31;101368.36;;;7.57;100.00
51526;BME280;37611;51.794;21.590;2022-11-13T22:34:33;101366.77;;;7.55;100.00
51526;BME280;37611;51.794;21.590;2022-11-13T22:38:36;101370.93;;;7.52;100.00